Time;durP1;ratioP1;P1;durP2;ratioP2;P2;SDS_P1;SDS_P2;PMS_P1;PMS_P2;Temp;Humidity;BMP_temperature;BMP_pressure;BME280_temperature;BME280_humidity;BME280_pressure;Samples;Min_cycle;Max_cycle;Signal;HPM_P1;HPM_P2
2024/01/18 00:01:36;;;;;;;8.93;1.17;;;;;;;;;;5002512;28;20033;-54
2024/01/18 00:04:02;;;;;;;4.18;0.90;;;0.70;99.90;;;;;;5002949;28;20104;-51
2024/01/18 00:06:31;;;;;;;4.07;0.82;;;;;;;;;;5002957;28;20166;-54
2024/01/18 00:08:57;;;;;;;3.38;0.85;;;;;;;;;;5001517;28;20148;-51
2024/01/18 00:11:25;;;;;;;5.47;0.93;;;;;;;;;;5001800;28;20046;-54
2024/01/18 00:13:51;;;;;;;5.18;1.00;;;0.50;99.90;;;;;;5001924;28;20092;-54
2024/01/18 00:16:17;;;;;;;6.38;1.30;;;;;;;;;;5002017;28;20038;-52
2024/01/18 00:18:42;;;;;;;4.15;0.98;;;0.30;99.90;;;;;;5001787;28;20042;-55
2024/01/18 00:21:08;;;;;;;3.50;0.80;;;;;;;;;;5001836;28;20524;-54
2024/01/18 00:23:34;;;;;;;4.55;1.55;;;;;;;;;;5002882;28;20030;-51
2024/01/18 00:26:00;;;;;;;3.72;1.30;;;;;;;;;;5002862;28;20461;-52
2024/01/18 00:28:26;;;;;;;5.40;1.05;;;;;;;;;;5006430;28;20454;-54
2024/01/18 00:30:52;;;;;;;3.53;1.15;;;;;;;;;;5006217;28;20042;-52
2024/01/18 00:33:18;;;;;;;3.50;1.00;;;;;;;;;;5138897;22;20028;-55
2024/01/18 00:35:44;;;;;;;4.43;1.00;;;;;;;;;;5004839;28;20136;-58
2024/01/18 00:38:10;;;;;;;3.78;1.17;;;;;;;;;;5005341;28;20046;-56
2024/01/18 00:40:36;;;;;;;4.25;1.20;;;-0.40;99.90;;;;;;5003883;28;20078;-56
2024/01/18 00:43:02;;;;;;;4.07;1.45;;;;;;;;;;5004226;28;20040;-53
2024/01/18 00:45:28;;;;;;;3.78;1.30;;;;;;;;;;4989186;28;20060;-50
2024/01/18 00:47:54;;;;;;;2.92;1.00;;;;;;;;;;5005724;28;20042;-51
2024/01/18 00:50:20;;;;;;;3.28;1.00;;;;;;;;;;5003669;28;20133;-52
2024/01/18 00:52:46;;;;;;;5.15;1.02;;;;;;;;;;4987287;28;20050;-51
2024/01/18 00:55:12;;;;;;;6.25;1.48;;;;;;;;;;5001503;28;20038;-50
2024/01/18 00:57:38;;;;;;;5.88;1.33;;;;;;;;;;5005431;28;20422;-50
2024/01/18 01:00:05;;;;;;;5.88;1.58;;;;;;;;;;5003094;28;20092;-55
2024/01/18 01:02:31;;;;;;;4.00;1.27;;;;;;;;;;5006193;28;20041;-50
2024/01/18 01:04:56;;;;;;;4.63;1.13;;;-0.80;99.90;;;;;;5004998;28;20048;-50
2024/01/18 01:07:22;;;;;;;4.72;1.35;;;;;;;;;;5006334;28;20511;-52
2024/01/18 01:09:48;;;;;;;3.88;1.23;;;;;;;;;;5003607;28;20037;-54
2024/01/18 01:12:14;;;;;;;3.75;1.05;;;;;;;;;;5003032;28;20049;-51
2024/01/18 01:14:40;;;;;;;4.93;1.08;;;;;;;;;;5006030;28;20041;-53
2024/01/18 01:17:06;;;;;;;4.13;1.10;;;-0.70;99.90;;;;;;4986345;28;20046;-53
2024/01/18 01:19:32;;;;;;;2.88;0.90;;;;;;;;;;5004531;28;20057;-52
2024/01/18 01:21:57;;;;;;;5.57;1.70;;;-0.60;99.90;;;;;;5005685;28;20042;-54
2024/01/18 01:24:23;;;;;;;4.70;1.20;;;;;;;;;;5005102;28;20168;-54
2024/01/18 01:26:49;;;;;;;4.00;1.20;;;;;;;;;;5004845;28;20056;-53
2024/01/18 01:29:15;;;;;;;6.70;1.30;;;;;;;;;;5002214;28;20058;-53
2024/01/18 01:31:41;;;;;;;8.57;1.40;;;;;;;;;;5005683;28;20081;-53
2024/01/18 01:34:07;;;;;;;6.53;1.50;;;;;;;;;;5003988;28;20119;-54
2024/01/18 01:36:33;;;;;;;6.72;1.35;;;;;;;;;;5005084;28;20088;-52
2024/01/18 01:38:59;;;;;;;5.72;1.60;;;-0.50;99.90;;;;;;5003712;28;20040;-53
2024/01/18 01:41:25;;;;;;;5.43;1.65;;;;;;;;;;5003038;28;20033;-52
2024/01/18 01:44:00;;;;;;;7.47;1.88;;;;;;;;;;5004908;28;20042;-52
2024/01/18 01:46:29;;;;;;;6.43;1.85;;;;;;;;;;5002683;28;20037;-54
2024/01/18 01:49:02;;;;;;;4.82;1.30;;;;;;;;;;5003179;28;20045;-54
2024/01/18 01:51:35;;;;;;;6.88;1.80;;;;;;;;;;4985119;28;20577;-53
2024/01/18 01:54:02;;;;;;;6.18;1.48;;;;;;;;;;5006217;28;20406;-53
2024/01/18 01:56:28;;;;;;;3.55;1.10;;;;;;;;;;5004263;28;20048;-50
2024/01/18 01:58:54;;;;;;;5.82;1.20;;;;;;;;;;5005275;28;20042;-53
2024/01/18 02:01:21;;;;;;;5.13;1.23;;;;;;;;;;5004238;28;20078;-52
2024/01/18 02:03:47;;;;;;;4.45;1.27;;;;;;;;;;5004765;28;20041;-54
2024/01/18 02:06:14;;;;;;;4.60;1.40;;;;;;;;;;5004214;28;20128;-54
2024/01/18 02:08:40;;;;;;;4.95;1.30;;;;;;;;;;5003503;28;20042;-53
2024/01/18 02:11:06;;;;;;;4.28;1.10;;;;;;;;;;5002789;28;20636;-53
2024/01/18 02:13:33;;;;;;;7.63;2.55;;;;;;;;;;5003062;28;20062;-51
2024/01/18 02:15:59;;;;;;;3.78;1.23;;;-1.30;99.90;;;;;;5003878;28;20042;-50
2024/01/18 02:18:25;;;;;;;5.13;1.40;;;;;;;;;;5003882;28;20038;-53
2024/01/18 02:20:53;;;;;;;4.63;1.33;;;;;;;;;;5002816;28;20490;-53
2024/01/18 02:23:20;;;;;;;5.22;1.13;;;;;;;;;;5002681;28;20142;-52
2024/01/18 02:25:46;;;;;;;5.18;1.20;;;;;;;;;;5001487;28;20546;-53
2024/01/18 02:28:12;;;;;;;6.05;1.00;;;;;;;;;;5002383;28;20034;-53
2024/01/18 02:30:38;;;;;;;5.45;1.05;;;;;;;;;;5002886;28;20153;-52
2024/01/18 02:33:04;;;;;;;3.60;1.15;;;;;;;;;;5002750;28;20049;-50
2024/01/18 02:35:30;;;;;;;4.53;1.00;;;-0.30;99.90;;;;;;5002995;28;20048;-50
2024/01/18 02:37:55;;;;;;;5.03;1.17;;;-0.50;99.90;;;;;;5003452;28;20577;-50
2024/01/18 02:40:21;;;;;;;6.45;1.20;;;;;;;;;;4996050;28;20049;-53
2024/01/18 02:42:47;;;;;;;8.32;1.40;;;;;;;;;;5000346;28;20034;-53
2024/01/18 02:45:14;;;;;;;4.32;1.20;;;;;;;;;;4997805;28;20123;-53
2024/01/18 02:47:40;;;;;;;4.35;1.15;;;;;;;;;;4999026;28;20517;-51
2024/01/18 02:50:06;;;;;;;7.43;1.95;;;;;;;;;;5000001;28;20045;-51
2024/01/18 02:52:33;;;;;;;6.70;1.50;;;;;;;;;;4999482;28;20129;-53
2024/01/18 02:54:59;;;;;;;6.57;1.50;;;;;;;;;;5004344;28;20141;-52
2024/01/18 02:57:25;;;;;;;6.47;2.00;;;;;;;;;;5003815;28;20132;-52
2024/01/18 02:59:51;;;;;;;10.63;2.95;;;;;;;;;;5002353;28;20034;-53
2024/01/18 03:02:16;;;;;;;5.00;1.60;;;0.30;99.90;;;;;;5003161;28;20053;-51
2024/01/18 03:04:42;;;;;;;4.50;1.40;;;;;;;;;;5003013;28;20112;-50
2024/01/18 03:07:08;;;;;;;4.55;1.25;;;0.20;99.90;;;;;;5002192;28;20605;-51
2024/01/18 03:09:34;;;;;;;5.53;1.38;;;;;;;;;;5003478;28;20256;-54
2024/01/18 03:12:00;;;;;;;7.57;1.50;;;;;;;;;;5001441;28;20041;-54
2024/01/18 03:14:26;;;;;;;4.30;1.40;;;;;;;;;;5003219;28;20049;-53
2024/01/18 03:16:52;;;;;;;7.85;1.55;;;;;;;;;;5002972;28;20068;-53
2024/01/18 03:19:18;;;;;;;4.00;1.35;;;;;;;;;;5001749;28;20120;-55
2024/01/18 03:21:43;;;;;;;4.00;1.25;;;0.00;99.90;;;;;;5002370;28;20046;-53
2024/01/18 03:24:09;;;;;;;5.53;1.98;;;;;;;;;;5002573;28;20088;-51
2024/01/18 03:26:35;;;;;;;6.07;1.60;;;;;;;;;;5001541;28;20525;-53
2024/01/18 03:29:01;;;;;;;5.72;1.58;;;;;;;;;;5003657;28;20049;-53
2024/01/18 03:31:27;;;;;;;4.22;1.40;;;;;;;;;;5001664;28;20159;-53
2024/01/18 03:33:53;;;;;;;6.22;2.53;;;;;;;;;;5001498;28;20065;-50
2024/01/18 03:36:21;;;;;;;5.70;1.40;;;;;;;;;;5001697;28;20099;-53
2024/01/18 03:38:47;;;;;;;4.75;1.67;;;;;;;;;;5003351;28;20548;-52
2024/01/18 03:41:15;;;;;;;5.53;1.73;;;;;;;;;;4999593;28;20041;-50
2024/01/18 03:43:41;;;;;;;6.00;1.67;;;;;;;;;;4999632;28;20069;-51
2024/01/18 03:46:07;;;;;;;6.75;2.50;;;;;;;;;;5000839;28;20137;-51
2024/01/18 03:48:33;;;;;;;6.30;1.73;;;;;;;;;;5002093;28;20121;-52
2024/01/18 03:50:59;;;;;;;7.78;1.85;;;;;;;;;;5002597;28;20490;-53
2024/01/18 03:53:25;;;;;;;7.85;2.33;;;;;;;;;;5001586;28;20064;-51
2024/01/18 03:55:51;;;;;;;7.50;2.17;;;;;;;;;;5003041;28;20566;-51
2024/01/18 03:58:18;;;;;;;6.25;1.90;;;;;;;;;;5004129;28;20121;-52
2024/01/18 04:00:44;;;;;;;7.35;2.15;;;;;;;;;;5001975;28;20124;-53
2024/01/18 04:03:10;;;;;;;8.23;2.13;;;;;;;;;;5001950;28;20141;-52
2024/01/18 04:05:36;;;;;;;6.15;2.22;;;;;;;;;;5002869;28;20053;-50
2024/01/18 04:08:02;;;;;;;7.15;2.15;;;;;;;;;;5002769;28;20037;-50
2024/01/18 04:10:28;;;;;;;6.68;2.10;;;;;;;;;;5000578;28;20073;-53
2024/01/18 04:12:54;;;;;;;7.60;2.00;;;;;;;;;;5003845;28;20124;-50
2024/01/18 04:15:20;;;;;;;5.90;2.05;;;;;;;;;;5003050;28;20029;-53
2024/01/18 04:17:47;;;;;;;6.25;1.88;;;;;;;;;;5001586;28;20044;-50
2024/01/18 04:20:16;;;;;;;6.85;1.90;;;;;;;;;;5002779;28;20053;-50
2024/01/18 04:22:43;;;;;;;9.60;1.60;;;;;;;;;;5002317;28;20473;-51
2024/01/18 04:25:10;;;;;;;6.95;1.73;;;-0.30;99.90;;;;;;5002787;28;20046;-52
2024/01/18 04:27:36;;;;;;;7.55;1.85;;;;;;;;;;5002430;28;20581;-50
2024/01/18 04:30:03;;;;;;;4.78;1.38;;;-1.00;99.90;;;;;;5000775;28;20382;-50
2024/01/18 04:32:29;;;;;;;4.57;1.10;;;;;;;;;;5001315;28;20037;-52
2024/01/18 04:34:55;;;;;;;7.22;1.10;;;;;;;;;;5002928;28;20046;-53
2024/01/18 04:37:21;;;;;;;5.30;1.10;;;;;;;;;;5000769;28;20100;-53
2024/01/18 04:39:47;;;;;;;3.90;1.55;;;;;;;;;;5000222;28;20030;-52
2024/01/18 04:42:15;;;;;;;1.15;0.70;;;;;;;;;;4996292;28;20049;-55
2024/01/18 04:44:41;;;;;;;2.53;0.80;;;;;;;;;;4999319;28;20038;-53
2024/01/18 04:47:08;;;;;;;3.58;0.90;;;;;;;;;;5001728;28;20042;-52
2024/01/18 04:49:34;;;;;;;2.97;1.30;;;;;;;;;;5002455;28;20148;-54
2024/01/18 04:52:00;;;;;;;7.80;0.98;;;-0.60;99.90;;;;;;5000301;28;20245;-53
2024/01/18 04:54:26;;;;;;;3.63;1.00;;;;;;;;;;5000916;28;20497;-55
2024/01/18 04:56:52;;;;;;;3.83;0.80;;;;;;;;;;5002299;28;20050;-52
2024/01/18 04:59:19;;;;;;;3.40;0.90;;;;;;;;;;5000823;28;20038;-52
2024/01/18 05:01:47;;;;;;;3.90;0.90;;;;;;;;;;5000623;28;20060;-53
2024/01/18 05:04:13;;;;;;;3.00;0.90;;;;;;;;;;5000527;28;20079;-52
2024/01/18 05:06:39;;;;;;;4.30;0.80;;;;;;;;;;5001639;28;20042;-54
2024/01/18 05:09:05;;;;;;;4.80;0.93;;;;;;;;;;5003497;28;20042;-56
2024/01/18 05:11:31;;;;;;;4.22;1.50;;;;;;;;;;5002379;28;20042;-51
2024/01/18 05:13:57;;;;;;;3.88;0.90;;;;;;;;;;5005759;28;20085;-53
2024/01/18 05:16:25;;;;;;;3.28;0.90;;;;;;;;;;5005555;28;20045;-53
2024/01/18 05:18:53;;;;;;;3.97;0.75;;;;;;;;;;5006823;28;20100;-52
2024/01/18 05:21:21;;;;;;;6.15;1.10;;;;;;;;;;5005587;28;20387;-51
2024/01/18 05:23:49;;;;;;;3.15;0.90;;;;;;;;;;5006063;28;20072;-53
2024/01/18 05:26:15;;;;;;;3.53;1.00;;;;;;;;;;5000845;28;20038;-53
2024/01/18 05:28:41;;;;;;;6.50;1.13;;;;;;;;;;5000721;28;20050;-52
2024/01/18 05:31:07;;;;;;;2.95;0.90;;;;;;;;;;5003520;28;20571;-52
2024/01/18 05:33:33;;;;;;;3.90;1.20;;;;;;;;;;5004458;28;20050;-53
2024/01/18 05:35:59;;;;;;;3.53;1.10;;;;;;;;;;5005277;28;20073;-53
2024/01/18 05:38:25;;;;;;;5.25;1.77;;;;;;;;;;5003596;28;20272;-53
2024/01/18 05:40:51;;;;;;;3.60;1.15;;;;;;;;;;5003691;28;20866;-54
2024/01/18 05:43:17;;;;;;;6.13;1.40;;;;;;;;;;4983372;28;20049;-54
2024/01/18 05:45:43;;;;;;;5.15;1.52;;;;;;;;;;5003101;28;20417;-54
2024/01/18 05:48:09;;;;;;;5.22;1.40;;;;;;;;;;5001341;28;20038;-54
2024/01/18 05:50:35;;;;;;;3.20;1.02;;;;;;;;;;5002893;28;20128;-54
2024/01/18 05:53:01;;;;;;;6.32;1.35;;;;;;;;;;5003602;28;20045;-53
2024/01/18 05:55:27;;;;;;;5.90;1.30;;;;;;;;;;5005966;28;20042;-54
2024/01/18 05:57:53;;;;;;;5.45;1.50;;;;;;;;;;5004449;28;20041;-53
2024/01/18 06:00:19;;;;;;;5.72;1.27;;;;;;;;;;4997509;28;20085;-55
2024/01/18 06:02:45;;;;;;;5.38;1.45;;;;;;;;;;4999052;28;20080;-54
2024/01/18 06:05:11;;;;;;;4.72;1.50;;;;;;;;;;4999442;28;20968;-55
2024/01/18 06:07:37;;;;;;;6.45;1.63;;;;;;;;;;5000280;28;21376;-54
2024/01/18 06:10:04;;;;;;;5.30;1.70;;;-1.30;99.90;;;;;;5003289;28;20041;-56
2024/01/18 06:12:32;;;;;;;6.78;1.70;;;;;;;;;;5004461;28;20038;-54
2024/01/18 06:14:58;;;;;;;7.07;1.92;;;;;;;;;;5001938;28;20099;-56
2024/01/18 06:17:24;;;;;;;8.85;2.60;;;;;;;;;;5000180;28;20046;-53
2024/01/18 06:19:49;;;;;;;7.10;2.80;;;-1.50;99.90;;;;;;5002538;28;20042;-51
2024/01/18 06:22:15;;;;;;;6.50;2.85;;;;;;;;;;5015304;28;20490;-50
2024/01/18 06:24:41;;;;;;;7.85;3.00;;;;;;;;;;5003317;28;20038;-51
2024/01/18 06:27:07;;;;;;;9.20;2.65;;;;;;;;;;4995208;28;20030;-53
2024/01/18 06:29:35;;;;;;;14.45;3.83;;;;;;;;;;5003430;28;20034;-53
2024/01/18 06:32:02;;;;;;;9.90;2.67;;;;;;;;;;5015287;28;20037;-53
2024/01/18 06:34:28;;;;;;;6.95;2.90;;;;;;;;;;5017244;28;20046;-50
2024/01/18 06:36:54;;;;;;;7.43;2.30;;;;;;;;;;5013842;28;20049;-52
2024/01/18 06:39:20;;;;;;;7.78;2.88;;;;;;;;;;5017859;28;20030;-51
2024/01/18 06:41:46;;;;;;;8.07;2.13;;;;;;;;;;5009484;28;20637;-53
2024/01/18 06:44:12;;;;;;;6.47;2.00;;;;;;;;;;5007892;28;20091;-51
2024/01/18 06:46:38;;;;;;;12.65;4.38;;;;;;;;;;5011043;28;20509;-54
2024/01/18 06:49:03;;;;;;;6.15;2.08;;;-1.50;99.90;;;;;;5010427;28;20051;-53
2024/01/18 06:51:29;;;;;;;10.05;1.90;;;;;;;;;;5010632;28;20117;-53
2024/01/18 06:53:55;;;;;;;4.90;2.00;;;;;;;;;;5017940;28;20149;-53
2024/01/18 06:56:21;;;;;;;7.55;2.28;;;;;;;;;;5003628;28;20120;-53
2024/01/18 06:58:47;;;;;;;7.55;2.38;;;;;;;;;;5018318;28;20038;-50
2024/01/18 07:01:13;;;;;;;8.13;2.88;;;;;;;;;;5017045;28;20045;-52
2024/01/18 07:03:41;;;;;;;7.28;2.75;;;;;;;;;;5025602;28;20476;-53
2024/01/18 07:06:07;;;;;;;8.38;3.88;;;;;;;;;;5015889;28;20038;-52
2024/01/18 07:08:35;;;;;;;9.77;3.90;;;;;;;;;;5011237;28;20033;-51
2024/01/18 07:11:01;;;;;;;10.73;4.47;;;-2.40;99.90;;;;;;5016260;28;20063;-52
2024/01/18 07:13:28;;;;;;;10.95;3.55;;;;;;;;;;5012083;28;20037;-52
2024/01/18 07:15:54;;;;;;;9.65;3.25;;;;;;;;;;5018242;28;20518;-56
2024/01/18 07:18:20;;;;;;;10.68;3.53;;;-2.20;99.90;;;;;;5014456;28;20056;-55
2024/01/18 07:20:46;;;;;;;10.35;5.35;;;;;;;;;;5019245;28;20042;-57
2024/01/18 07:23:13;;;;;;;13.48;4.70;;;;;;;;;;5022495;28;20045;-54
2024/01/18 07:25:39;;;;;;;10.95;4.88;;;-1.80;99.90;;;;;;5020274;28;20049;-53
2024/01/18 07:28:05;;;;;;;11.70;3.97;;;;;;;;;;5009934;28;20409;-55
2024/01/18 07:30:31;;;;;;;9.18;2.67;;;;;;;;;;5003291;28;20034;-52
2024/01/18 07:32:56;;;;;;;10.45;2.78;;;-1.50;99.90;;;;;;5001206;28;20034;-53
2024/01/18 07:35:22;;;;;;;6.25;2.58;;;;;;;;;;5000224;28;20022;-56
2024/01/18 07:37:48;;;;;;;5.97;2.10;;;;;;;;;;5002511;28;20078;-51
2024/01/18 07:40:14;;;;;;;7.38;2.15;;;;;;;;;;5003498;28;20095;-54
2024/01/18 07:42:40;;;;;;;7.05;2.20;;;;;;;;;;5004966;28;20501;-51
2024/01/18 07:45:07;;;;;;;9.18;2.10;;;;;;;;;;5001679;28;20052;-53
2024/01/18 07:47:33;;;;;;;8.43;2.30;;;;;;;;;;5000818;28;20034;-53
2024/01/18 07:49:59;;;;;;;7.57;2.00;;;;;;;;;;4998418;28;20053;-52
2024/01/18 07:52:25;;;;;;;7.72;1.75;;;;;;;;;;5002313;28;20054;-54
2024/01/18 07:54:51;;;;;;;6.15;2.25;;;;;;;;;;4991892;28;20557;-54
2024/01/18 07:57:18;;;;;;;4.63;1.85;;;;;;;;;;4999943;28;20093;-54
2024/01/18 07:59:44;;;;;;;5.95;1.58;;;;;;;;;;5001161;28;20042;-51
2024/01/18 08:02:10;;;;;;;5.35;1.88;;;;;;;;;;4999446;28;20042;-52
2024/01/18 08:04:35;;;;;;;8.25;1.80;;;-0.30;99.90;;;;;;5001208;28;20073;-54
2024/01/18 08:07:01;;;;;;;6.32;1.70;;;;;;;;;;4999421;28;20069;-55
2024/01/18 08:09:27;;;;;;;7.28;2.17;;;;;;;;;;5000303;28;20037;-53
2024/01/18 08:11:53;;;;;;;5.10;1.80;;;;;;;;;;5002694;28;20041;-55
2024/01/18 08:14:19;;;;;;;7.35;1.52;;;;;;;;;;5003142;28;20062;-52
2024/01/18 08:16:45;;;;;;;6.57;1.80;;;;;;;;;;5005481;28;20045;-56
2024/01/18 08:19:11;;;;;;;6.60;1.55;;;0.00;99.90;;;;;;4998811;28;20053;-57
2024/01/18 08:21:43;;;;;;;6.90;1.50;;;;;;;;;;4998806;28;20050;-57
2024/01/18 08:24:09;;;;;;;4.80;1.55;;;0.10;99.90;;;;;;4998500;28;20049;-57
2024/01/18 08:26:35;;;;;;;6.28;1.50;;;;;;;;;;4980955;28;20551;-57
2024/01/18 08:29:01;;;;;;;5.75;1.38;;;0.30;99.90;;;;;;4982739;28;20046;-57
2024/01/18 08:31:28;;;;;;;6.32;2.03;;;;;;;;;;5000602;28;20038;-57
2024/01/18 08:33:54;;;;;;;3.00;1.00;;;;;;;;;;5002901;28;20042;-57
2024/01/18 08:36:20;;;;;;;7.93;1.60;;;;;;;;;;4999140;28;20066;-58
2024/01/18 08:38:46;;;;;;;4.53;1.35;;;;;;;;;;4998517;28;20125;-57
2024/01/18 08:41:12;;;;;;;2.97;1.00;;;;;;;;;;4997472;28;20136;-56
2024/01/18 08:43:38;;;;;;;6.30;2.10;;;;;;;;;;5000765;28;20039;-58
2024/01/18 08:46:06;;;;;;;2.85;1.40;;;;;;;;;;5001856;28;20041;-57
2024/01/18 08:48:35;;;;;;;4.47;1.00;;;1.20;99.90;;;;;;5004617;28;20054;-57
2024/01/18 08:51:02;;;;;;;3.10;1.00;;;;;;;;;;5005193;28;20038;-57
2024/01/18 08:53:28;;;;;;;3.55;1.00;;;;;;;;;;4997648;28;20405;-57
2024/01/18 08:55:54;;;;;;;4.82;1.00;;;;;;;;;;5006156;28;20042;-57
2024/01/18 08:58:20;;;;;;;4.95;1.27;;;;;;;;;;5002792;28;20108;-57
2024/01/18 09:00:46;;;;;;;6.57;1.30;;;;;;;;;;5001589;28;20081;-58
2024/01/18 09:03:12;;;;;;;3.70;1.10;;;;;;;;;;5002521;28;20044;-56
2024/01/18 09:05:38;;;;;;;8.20;1.30;;;;;;;;;;5006068;28;20049;-54
2024/01/18 09:08:04;;;;;;;6.75;1.50;;;0.90;99.90;;;;;;5005077;28;21248;-55
2024/01/18 09:10:30;;;;;;;3.53;1.70;;;;;;;;;;5008229;28;20037;-57
2024/01/18 09:12:56;;;;;;;5.28;1.40;;;;;;;;;;5001087;28;20048;-56
2024/01/18 09:15:24;;;;;;;6.57;1.55;;;;;;;;;;5005572;28;20033;-54
2024/01/18 09:17:51;;;;;;;5.47;1.48;;;;;;;;;;5002430;28;20041;-54
2024/01/18 09:20:17;;;;;;;6.80;1.65;;;;;;;;;;5003705;28;20079;-54
2024/01/18 09:22:43;;;;;;;5.22;1.50;;;;;;;;;;5006108;28;20050;-54
2024/01/18 09:25:09;;;;;;;7.50;2.00;;;;;;;;;;4984938;28;21163;-54
2024/01/18 09:27:35;;;;;;;5.95;1.50;;;;;;;;;;5004981;28;20077;-53
2024/01/18 09:30:02;;;;;;;7.82;1.58;;;;;;;;;;5005136;28;20045;-55
2024/01/18 09:32:28;;;;;;;5.28;1.83;;;;;;;;;;5007229;28;20103;-54
2024/01/18 09:34:54;;;;;;;5.95;1.13;;;;;;;;;;5004765;28;20041;-56
2024/01/18 09:37:20;;;;;;;4.63;1.10;;;;;;;;;;5006451;28;20440;-55
2024/01/18 09:39:46;;;;;;;5.97;1.90;;;;;;;;;;5005082;28;20045;-54
2024/01/18 09:42:15;;;;;;;9.40;1.50;;;;;;;;;;5001613;28;20050;-52
2024/01/18 09:44:45;;;;;;;10.02;1.35;;;;;;;;;;5005831;28;20560;-52
2024/01/18 09:47:13;;;;;;;5.00;1.17;;;;;;;;;;5004422;28;20041;-54
2024/01/18 09:49:42;;;;;;;6.57;1.23;;;;;;;;;;4984544;28;20060;-53
2024/01/18 09:52:08;;;;;;;6.15;1.35;;;;;;;;;;5004823;28;20046;-52
2024/01/18 09:54:34;;;;;;;2.83;1.10;;;1.80;99.90;;;;;;5003931;28;20481;-51
2024/01/18 09:57:01;;;;;;;3.72;0.98;;;;;;;;;;5007461;28;20041;-51
2024/01/18 09:59:31;;;;;;;2.15;0.80;;;;;;;;;;4986557;28;20461;-54
2024/01/18 10:01:58;;;;;;;2.80;0.90;;;;;;;;;;5003861;28;20052;-55
2024/01/18 10:04:27;;;;;;;2.17;0.80;;;;;;;;;;5003061;28;20645;-52
2024/01/18 10:06:54;;;;;;;2.15;0.70;;;;;;;;;;5005542;28;20046;-54
2024/01/18 10:09:22;;;;;;;2.72;0.80;;;;;;;;;;5002632;28;20536;-55
2024/01/18 10:11:48;;;;;;;2.97;1.00;;;;;;;;;;4988233;28;20169;-55
2024/01/18 10:14:15;;;;;;;3.22;0.90;;;;;;;;;;4998787;28;20038;-55
2024/01/18 10:16:41;;;;;;;3.28;0.70;;;;;;;;;;5003471;28;20081;-54
2024/01/18 10:19:14;;;;;;;2.58;0.80;;;1.30;99.90;;;;;;5002890;28;20096;-55
2024/01/18 10:21:41;;;;;;;6.07;1.20;;;;;;;;;;5003065;28;20502;-54
2024/01/18 10:24:12;;;;;;;3.15;1.00;;;1.10;99.90;;;;;;5006644;28;20046;-54
2024/01/18 10:26:38;;;;;;;3.63;0.90;;;;;;;;;;5004037;28;20156;-55
2024/01/18 10:29:06;;;;;;;3.67;1.00;;;;;;;;;;5003298;28;20325;-55
2024/01/18 10:31:32;;;;;;;4.70;0.90;;;;;;;;;;5002803;28;20042;-57
2024/01/18 10:33:58;;;;;;;3.50;1.05;;;;;;;;;;5005576;28;20042;-54
2024/01/18 10:36:23;;;;;;;2.80;1.00;;;1.40;99.90;;;;;;5005662;28;20535;-56
2024/01/18 10:38:49;;;;;;;4.68;0.90;;;;;;;;;;5005891;28;20034;-55
2024/01/18 10:41:19;;;;;;;2.67;1.02;;;;;;;;;;5005155;28;20105;-55
2024/01/18 10:43:45;;;;;;;4.82;0.80;;;;;;;;;;5004949;28;20073;-58
2024/01/18 10:46:11;;;;;;;2.33;0.80;;;;;;;;;;5002203;28;20100;-55
2024/01/18 10:48:36;;;;;;;3.22;1.00;;;2.60;99.90;;;;;;5002058;28;20042;-57
2024/01/18 10:51:05;;;;;;;4.85;1.10;;;;;;;;;;5001235;28;20040;-56
2024/01/18 10:53:34;;;;;;;4.00;0.98;;;;;;;;;;5002525;28;20048;-57
2024/01/18 10:56:01;;;;;;;5.07;1.08;;;;;;;;;;5000618;28;20045;-54
2024/01/18 10:58:27;;;;;;;7.03;1.50;;;;;;;;;;5003041;28;20069;-56
2024/01/18 11:00:54;;;;;;;5.10;1.10;;;;;;;;;;4999498;28;20506;-56
2024/01/18 11:03:21;;;;;;;8.73;1.65;;;;;;;;;;5000129;28;20038;-56
2024/01/18 11:05:48;;;;;;;6.13;1.90;;;;;;;;;;5000731;28;20101;-57
2024/01/18 11:08:14;;;;;;;3.50;1.10;;;;;;;;;;5004323;28;20061;-58
2024/01/18 11:10:40;;;;;;;3.63;1.00;;;;;;;;;;5002775;28;20542;-57
2024/01/18 11:13:07;;;;;;;6.00;1.30;;;2.10;99.90;;;;;;5005561;28;20048;-57
2024/01/18 11:15:35;;;;;;;7.70;1.42;;;1.90;99.90;;;;;;4997412;28;20084;-57
2024/01/18 11:18:10;;;;;;;4.45;1.20;;;;;;;;;;4996603;28;20078;-58
2024/01/18 11:20:58;;;;;;;5.35;1.35;;;1.90;99.90;;;;;;4998585;28;20045;-58
2024/01/18 11:23:28;;;;;;;6.25;1.60;;;;;;;;;;4999131;28;20069;-57
2024/01/18 11:25:54;;;;;;;4.30;1.55;;;;;;;;;;5002097;28;20038;-57
2024/01/18 11:28:23;;;;;;;4.97;1.30;;;;;;;;;;5000930;28;20034;-57
2024/01/18 11:30:49;;;;;;;5.00;1.20;;;;;;;;;;5000576;28;20050;-58
2024/01/18 11:33:15;;;;;;;6.75;1.45;;;;;;;;;;5000085;28;20120;-56
2024/01/18 11:35:42;;;;;;;5.50;1.50;;;;;;;;;;4999643;28;20133;-57
2024/01/18 11:38:20;;;;;;;6.13;1.63;;;;;;;;;;4979804;28;20104;-57
2024/01/18 11:40:47;;;;;;;6.30;1.60;;;;;;;;;;5002968;28;20053;-58
2024/01/18 11:43:13;;;;;;;5.50;1.60;;;;;;;;;;4999810;28;20041;-56
2024/01/18 11:45:43;;;;;;;6.15;1.70;;;;;;;;;;4998663;28;21229;-57
2024/01/18 11:48:08;;;;;;;6.38;1.90;;;2.30;99.90;;;;;;5000877;28;20046;-57
2024/01/18 11:50:34;;;;;;;5.00;1.27;;;;;;;;;;4999864;28;20038;-55
2024/01/18 11:53:01;;;;;;;8.65;1.77;;;;;;;;;;5001574;28;20033;-57
2024/01/18 11:55:30;;;;;;;7.50;2.15;;;2.30;99.90;;;;;;5001387;28;20038;-57
2024/01/18 11:57:56;;;;;;;4.65;1.30;;;2.50;99.90;;;;;;5005107;28;20038;-57
2024/01/18 12:00:22;;;;;;;7.57;2.08;;;;;;;;;;5000329;28;20177;-56
2024/01/18 12:02:49;;;;;;;8.52;1.48;;;;;;;;;;5003584;28;20548;-56
2024/01/18 12:05:16;;;;;;;4.47;1.35;;;;;;;;;;5003278;28;20038;-58
2024/01/18 12:07:44;;;;;;;5.93;1.63;;;;;;;;;;4998715;28;20050;-56
2024/01/18 12:10:10;;;;;;;5.43;1.52;;;4.10;99.90;;;;;;5000911;28;20054;-56
2024/01/18 12:12:39;;;;;;;8.77;2.38;;;;;;;;;;5003180;28;20056;-57
2024/01/18 12:15:05;;;;;;;7.40;1.67;;;6.50;99.90;;;;;;5003349;28;20157;-56
2024/01/18 12:17:32;;;;;;;9.52;2.38;;;;;;;;;;4999128;28;20064;-58
2024/01/18 12:19:59;;;;;;;5.10;1.48;;;;;;;;;;5003535;28;20042;-54
2024/01/18 12:22:26;;;;;;;5.53;1.27;;;;;;;;;;5001298;28;20046;-57
2024/01/18 12:24:52;;;;;;;6.50;1.58;;;;;;;;;;5009152;28;20042;-59
2024/01/18 12:27:19;;;;;;;8.25;1.40;;;8.80;99.90;;;;;;5006711;28;20187;-57
2024/01/18 12:29:46;;;;;;;7.85;2.33;;;;;;;;;;4998021;28;20050;-58
2024/01/18 12:32:16;;;;;;;7.40;2.33;;;;;;;;;;5000540;28;20058;-57
2024/01/18 12:34:42;;;;;;;4.57;1.30;;;;;;;;;;5017613;28;20053;-58
2024/01/18 12:37:12;;;;;;;6.22;1.20;;;;;;;;;;5023719;28;20037;-59
2024/01/18 12:39:38;;;;;;;6.40;1.30;;;;;;;;;;5013465;28;20034;-56
2024/01/18 12:42:04;;;;;;;6.30;1.20;;;;;;;;;;5019278;28;20040;-58
2024/01/18 12:44:30;;;;;;;5.20;1.50;;;;;;;;;;5010329;28;20086;-58
2024/01/18 12:46:56;;;;;;;6.05;1.13;;;17.10;99.90;;;;;;5009110;28;20051;-59
2024/01/18 12:49:24;;;;;;;5.97;1.27;;;;;;;;;;5011832;28;20045;-58
2024/01/18 12:51:52;;;;;;;5.07;1.10;;;;;;;;;;5003747;28;20506;-58
2024/01/18 12:54:19;;;;;;;5.70;1.05;;;18.90;99.90;;;;;;5007855;28;20038;-59
2024/01/18 12:56:45;;;;;;;8.43;1.30;;;;;;;;;;5006767;28;20141;-58
2024/01/18 12:59:11;;;;;;;8.13;1.20;;;;;;;;;;5011406;28;20129;-60
2024/01/18 13:01:37;;;;;;;4.57;1.10;;;19.40;99.90;;;;;;5006816;28;20049;-59
2024/01/18 13:04:13;;;;;;;7.65;1.60;;;19.80;99.90;;;;;;4993763;28;20046;-59
2024/01/18 13:06:41;;;;;;;4.13;1.30;;;;;;;;;;5006935;28;20578;-60
2024/01/18 13:09:07;;;;;;;5.68;1.33;;;;;;;;;;5008664;28;20065;-60
2024/01/18 13:11:33;;;;;;;5.07;1.50;;;20.30;99.90;;;;;;5008994;28;20049;-59
2024/01/18 13:14:03;;;;;;;3.88;1.20;;;19.50;99.90;;;;;;5011486;28;20100;-60
2024/01/18 13:16:29;;;;;;;4.75;1.38;;;19.90;99.90;;;;;;5006036;28;20041;-60
2024/01/18 13:19:01;;;;;;;5.82;1.10;;;;;;;;;;5008030;28;20050;-60
2024/01/18 13:21:28;;;;;;;4.15;1.00;;;20.00;99.90;;;;;;5009206;28;20038;-60
2024/01/18 13:23:54;;;;;;;5.60;1.40;;;20.40;99.90;;;;;;5008683;28;20034;-60
2024/01/18 13:26:20;;;;;;;6.03;1.13;;;20.70;99.90;;;;;;5006307;28;20149;-60
2024/01/18 13:28:45;;;;;;;5.28;0.98;;;20.50;99.90;;;;;;5010183;28;20041;-61
2024/01/18 13:31:11;;;;;;;4.22;0.90;;;;;;;;;;5007340;28;20064;-60
2024/01/18 13:33:37;;;;;;;4.63;1.15;;;21.20;99.90;;;;;;5007823;28;20050;-60
2024/01/18 13:36:03;;;;;;;4.00;0.93;;;21.20;99.90;;;;;;5005867;28;20053;-60
2024/01/18 13:38:29;;;;;;;3.40;1.00;;;21.40;99.90;;;;;;5008000;28;20109;-61
2024/01/18 13:40:55;;;;;;;5.10;1.30;;;21.00;99.90;;;;;;5014100;28;20301;-61
2024/01/18 13:43:20;;;;;;;6.22;1.30;;;21.10;99.90;;;;;;5008924;28;20044;-61
2024/01/18 13:45:46;;;;;;;3.97;1.20;;;21.70;99.90;;;;;;5015201;28;20147;-61
2024/01/18 13:48:11;;;;;;;5.78;1.45;;;21.20;63.90;;;;;;5010685;28;20076;-61
2024/01/18 13:50:37;;;;;;;7.55;1.75;;;;;;;;;;5008930;28;20504;-62
2024/01/18 13:53:04;;;;;;;4.40;1.13;;;20.10;99.90;;;;;;5010652;28;20144;-61
2024/01/18 13:55:30;;;;;;;4.50;1.08;;;18.60;99.90;;;;;;5012584;28;20042;-61
2024/01/18 13:57:56;;;;;;;5.45;1.02;;;17.30;99.90;;;;;;5010658;28;20450;-61
2024/01/18 14:00:22;;;;;;;4.63;1.30;;;16.80;99.90;;;;;;5007734;28;20039;-62
2024/01/18 14:02:48;;;;;;;4.15;1.10;;;16.30;99.90;;;;;;5008771;28;20088;-62
2024/01/18 14:05:13;;;;;;;5.30;1.35;;;16.00;99.90;;;;;;4991058;28;20496;-62
2024/01/18 14:07:39;;;;;;;4.13;1.05;;;14.10;99.90;;;;;;5009688;28;20130;-62
2024/01/18 14:10:05;;;;;;;5.90;1.38;;;13.40;99.90;;;;;;5011181;28;20398;-62
2024/01/18 14:12:31;;;;;;;5.70;1.30;;;12.40;99.90;;;;;;4986739;28;20185;-62